sensor_id;sensor_type;location;lat;lon;timestamp;temperature;humidity
9544;DHT22;30418;51.45933468;7.33152330;2024-03-02T00:01:58;11.40;55.70
9544;DHT22;30418;51.45933468;7.33152330;2024-03-02T00:04:26;11.40;55.70
9544;DHT22;30418;51.45933468;7.33152330;2024-03-02T00:06:55;11.40;55.70
9544;DHT22;30418;51.45933468;7.33152330;2024-03-02T00:09:24;11.40;55.80
9544;DHT22;30418;51.45933468;7.33152330;2024-03-02T00:11:54;11.40;55.70
9544;DHT22;30418;51.45933468;7.33152330;2024-03-02T00:14:22;11.40;55.80
9544;DHT22;30418;51.45933468;7.33152330;2024-03-02T00:16:52;11.40;55.80
9544;DHT22;30418;51.45933468;7.33152330;2024-03-02T00:19:23;11.40;55.80
9544;DHT22;30418;51.45933468;7.33152330;2024-03-02T00:21:52;11.40;55.80
9544;DHT22;30418;51.45933468;7.33152330;2024-03-02T00:24:21;11.40;55.80
9544;DHT22;30418;51.45933468;7.33152330;2024-03-02T00:27:01;11.40;55.80
9544;DHT22;30418;51.45933468;7.33152330;2024-03-02T00:29:32;11.40;55.80
9544;DHT22;30418;51.45933468;7.33152330;2024-03-02T00:32:01;11.40;55.80
9544;DHT22;30418;51.45933468;7.33152330;2024-03-02T00:34:29;11.40;55.80
9544;DHT22;30418;51.45933468;7.33152330;2024-03-02T00:36:57;11.40;55.80
9544;DHT22;30418;51.45933468;7.33152330;2024-03-02T00:39:27;11.40;55.90
9544;DHT22;30418;51.45933468;7.33152330;2024-03-02T00:41:55;11.40;55.80
9544;DHT22;30418;51.45933468;7.33152330;2024-03-02T00:44:25;11.40;55.80
9544;DHT22;30418;51.45933468;7.33152330;2024-03-02T00:46:58;11.40;55.80
9544;DHT22;30418;51.45933468;7.33152330;2024-03-02T00:49:27;11.30;55.70
9544;DHT22;30418;51.45933468;7.33152330;2024-03-02T00:51:56;11.40;55.90
9544;DHT22;30418;51.45933468;7.33152330;2024-03-02T00:54:26;11.30;55.80
9544;DHT22;30418;51.45933468;7.33152330;2024-03-02T00:56:56;11.30;55.80
9544;DHT22;30418;51.45933468;7.33152330;2024-03-02T00:59:27;11.30;55.80
9544;DHT22;30418;51.45933468;7.33152330;2024-03-02T01:01:57;11.30;55.90
9544;DHT22;30418;51.45933468;7.33152330;2024-03-02T01:04:26;11.30;55.90
9544;DHT22;30418;51.45933468;7.33152330;2024-03-02T01:06:54;11.30;55.90
9544;DHT22;30418;51.45933468;7.33152330;2024-03-02T01:09:23;11.30;55.90
9544;DHT22;30418;51.45933468;7.33152330;2024-03-02T01:11:51;11.30;55.90
9544;DHT22;30418;51.45933468;7.33152330;2024-03-02T01:14:22;11.30;55.90
9544;DHT22;30418;51.45933468;7.33152330;2024-03-02T01:16:53;11.30;55.90
9544;DHT22;30418;51.45933468;7.33152330;2024-03-02T01:19:22;11.30;55.90
9544;DHT22;30418;51.45933468;7.33152330;2024-03-02T01:21:51;11.30;55.90
9544;DHT22;30418;51.45933468;7.33152330;2024-03-02T01:24:19;11.20;55.80
9544;DHT22;30418;51.45933468;7.33152330;2024-03-02T01:26:48;11.30;55.90
9544;DHT22;30418;51.45933468;7.33152330;2024-03-02T01:29:17;11.30;55.90
9544;DHT22;30418;51.45933468;7.33152330;2024-03-02T01:31:46;11.30;56.00
9544;DHT22;30418;51.45933468;7.33152330;2024-03-02T01:34:16;11.20;55.80
9544;DHT22;30418;51.45933468;7.33152330;2024-03-02T01:36:44;11.20;55.80
9544;DHT22;30418;51.45933468;7.33152330;2024-03-02T01:39:13;11.20;55.80
9544;DHT22;30418;51.45933468;7.33152330;2024-03-02T01:41:41;11.30;55.90
9544;DHT22;30418;51.45933468;7.33152330;2024-03-02T01:44:10;11.30;55.90
9544;DHT22;30418;51.45933468;7.33152330;2024-03-02T01:46:38;11.20;55.80
9544;DHT22;30418;51.45933468;7.33152330;2024-03-02T01:49:06;11.20;55.80
9544;DHT22;30418;51.45933468;7.33152330;2024-03-02T01:51:36;11.20;55.90
9544;DHT22;30418;51.45933468;7.33152330;2024-03-02T01:54:05;11.20;55.90
9544;DHT22;30418;51.45933468;7.33152330;2024-03-02T01:56:33;11.20;55.80
9544;DHT22;30418;51.45933468;7.33152330;2024-03-02T01:59:02;11.20;55.90
9544;DHT22;30418;51.45933468;7.33152330;2024-03-02T02:01:31;11.20;55.90
9544;DHT22;30418;51.45933468;7.33152330;2024-03-02T02:04:00;11.20;55.90
9544;DHT22;30418;51.45933468;7.33152330;2024-03-02T02:06:28;11.20;55.90
9544;DHT22;30418;51.45933468;7.33152330;2024-03-02T02:08:58;11.20;55.80
9544;DHT22;30418;51.45933468;7.33152330;2024-03-02T02:11:27;11.20;55.90
9544;DHT22;30418;51.45933468;7.33152330;2024-03-02T02:13:56;11.20;56.30
9544;DHT22;30418;51.45933468;7.33152330;2024-03-02T02:16:25;11.10;55.80
9544;DHT22;30418;51.45933468;7.33152330;2024-03-02T02:18:54;11.10;55.80
9544;DHT22;30418;51.45933468;7.33152330;2024-03-02T02:21:24;11.10;55.80
9544;DHT22;30418;51.45933468;7.33152330;2024-03-02T02:23:53;11.10;55.80
9544;DHT22;30418;51.45933468;7.33152330;2024-03-02T02:26:22;11.10;55.80
9544;DHT22;30418;51.45933468;7.33152330;2024-03-02T02:28:50;11.10;55.80
9544;DHT22;30418;51.45933468;7.33152330;2024-03-02T02:31:19;11.10;55.90
9544;DHT22;30418;51.45933468;7.33152330;2024-03-02T02:33:47;11.10;55.90
9544;DHT22;30418;51.45933468;7.33152330;2024-03-02T02:36:16;11.10;55.90
9544;DHT22;30418;51.45933468;7.33152330;2024-03-02T02:38:48;11.20;56.00
9544;DHT22;30418;51.45933468;7.33152330;2024-03-02T02:41:17;11.10;55.90
9544;DHT22;30418;51.45933468;7.33152330;2024-03-02T02:43:45;11.10;55.90
9544;DHT22;30418;51.45933468;7.33152330;2024-03-02T02:46:13;11.10;55.90
9544;DHT22;30418;51.45933468;7.33152330;2024-03-02T02:48:42;11.10;55.90
9544;DHT22;30418;51.45933468;7.33152330;2024-03-02T02:51:10;11.10;55.90
9544;DHT22;30418;51.45933468;7.33152330;2024-03-02T02:53:39;11.10;55.90
9544;DHT22;30418;51.45933468;7.33152330;2024-03-02T02:56:10;11.10;55.90
9544;DHT22;30418;51.45933468;7.33152330;2024-03-02T02:58:40;11.10;55.90
9544;DHT22;30418;51.45933468;7.33152330;2024-03-02T03:01:09;11.20;56.00
9544;DHT22;30418;51.45933468;7.33152330;2024-03-02T03:03:38;11.10;55.90
9544;DHT22;30418;51.45933468;7.33152330;2024-03-02T03:06:07;11.10;55.90
9544;DHT22;30418;51.45933468;7.33152330;2024-03-02T03:08:36;11.10;55.90
9544;DHT22;30418;51.45933468;7.33152330;2024-03-02T03:11:05;11.10;55.90
9544;DHT22;30418;51.45933468;7.33152330;2024-03-02T03:13:35;11.10;56.00
9544;DHT22;30418;51.45933468;7.33152330;2024-03-02T03:16:04;11.10;56.00
9544;DHT22;30418;51.45933468;7.33152330;2024-03-02T03:18:34;11.10;56.60
9544;DHT22;30418;51.45933468;7.33152330;2024-03-02T03:21:03;11.20;56.10
9544;DHT22;30418;51.45933468;7.33152330;2024-03-02T03:23:32;11.10;56.00
9544;DHT22;30418;51.45933468;7.33152330;2024-03-02T03:26:00;11.20;56.00
9544;DHT22;30418;51.45933468;7.33152330;2024-03-02T03:28:29;11.20;56.00
9544;DHT22;30418;51.45933468;7.33152330;2024-03-02T03:31:00;11.20;56.00
9544;DHT22;30418;51.45933468;7.33152330;2024-03-02T03:33:29;11.20;56.00
9544;DHT22;30418;51.45933468;7.33152330;2024-03-02T03:35:57;11.20;56.00
9544;DHT22;30418;51.45933468;7.33152330;2024-03-02T03:38:26;11.20;56.00
9544;DHT22;30418;51.45933468;7.33152330;2024-03-02T03:40:54;11.20;56.60
9544;DHT22;30418;51.45933468;7.33152330;2024-03-02T03:43:23;11.20;55.90
9544;DHT22;30418;51.45933468;7.33152330;2024-03-02T03:45:51;11.20;55.90
9544;DHT22;30418;51.45933468;7.33152330;2024-03-02T03:48:21;11.20;55.90
9544;DHT22;30418;51.45933468;7.33152330;2024-03-02T03:50:50;11.20;55.90
9544;DHT22;30418;51.45933468;7.33152330;2024-03-02T03:53:18;11.20;55.90
9544;DHT22;30418;51.45933468;7.33152330;2024-03-02T03:55:47;11.20;55.90
9544;DHT22;30418;51.45933468;7.33152330;2024-03-02T03:58:17;11.20;55.80
9544;DHT22;30418;51.45933468;7.33152330;2024-03-02T04:00:49;11.20;55.90
9544;DHT22;30418;51.45933468;7.33152330;2024-03-02T04:03:18;11.20;55.90
9544;DHT22;30418;51.45933468;7.33152330;2024-03-02T04:05:48;11.20;55.90
9544;DHT22;30418;51.45933468;7.33152330;2024-03-02T04:08:17;11.20;55.90
9544;DHT22;30418;51.45933468;7.33152330;2024-03-02T04:10:45;11.20;55.90
9544;DHT22;30418;51.45933468;7.33152330;2024-03-02T04:13:14;11.20;55.90
9544;DHT22;30418;51.45933468;7.33152330;2024-03-02T04:15:43;11.20;55.90
9544;DHT22;30418;51.45933468;7.33152330;2024-03-02T04:18:11;11.20;55.90
9544;DHT22;30418;51.45933468;7.33152330;2024-03-02T04:20:40;11.20;55.90
9544;DHT22;30418;51.45933468;7.33152330;2024-03-02T04:23:09;11.20;55.90
9544;DHT22;30418;51.45933468;7.33152330;2024-03-02T04:25:38;11.20;55.90
9544;DHT22;30418;51.45933468;7.33152330;2024-03-02T04:28:05;11.20;55.90
9544;DHT22;30418;51.45933468;7.33152330;2024-03-02T04:30:34;11.20;55.90
9544;DHT22;30418;51.45933468;7.33152330;2024-03-02T04:33:03;11.20;55.90
9544;DHT22;30418;51.45933468;7.33152330;2024-03-02T04:35:34;11.20;55.90
9544;DHT22;30418;51.45933468;7.33152330;2024-03-02T04:38:03;11.20;55.90
9544;DHT22;30418;51.45933468;7.33152330;2024-03-02T04:40:33;11.20;55.90
9544;DHT22;30418;51.45933468;7.33152330;2024-03-02T04:43:00;11.20;55.90
9544;DHT22;30418;51.45933468;7.33152330;2024-03-02T04:45:30;11.10;55.80
9544;DHT22;30418;51.45933468;7.33152330;2024-03-02T04:47:58;11.20;55.90
9544;DHT22;30418;51.45933468;7.33152330;2024-03-02T04:50:27;11.20;55.90
9544;DHT22;30418;51.45933468;7.33152330;2024-03-02T04:52:56;11.10;55.90
9544;DHT22;30418;51.45933468;7.33152330;2024-03-02T04:55:25;11.10;55.90
9544;DHT22;30418;51.45933468;7.33152330;2024-03-02T04:58:18;11.10;55.90
9544;DHT22;30418;51.45933468;7.33152330;2024-03-02T05:00:47;11.10;55.80
9544;DHT22;30418;51.45933468;7.33152330;2024-03-02T05:03:16;11.10;55.80
9544;DHT22;30418;51.45933468;7.33152330;2024-03-02T05:05:44;11.10;55.80
9544;DHT22;30418;51.45933468;7.33152330;2024-03-02T05:08:12;11.10;55.90
9544;DHT22;30418;51.45933468;7.33152330;2024-03-02T05:10:43;11.10;55.90
9544;DHT22;30418;51.45933468;7.33152330;2024-03-02T05:13:11;11.10;55.90
9544;DHT22;30418;51.45933468;7.33152330;2024-03-02T05:15:41;11.10;55.90
9544;DHT22;30418;51.45933468;7.33152330;2024-03-02T05:18:10;11.10;55.90
9544;DHT22;30418;51.45933468;7.33152330;2024-03-02T05:20:38;11.10;55.90
9544;DHT22;30418;51.45933468;7.33152330;2024-03-02T05:23:07;11.10;55.90
9544;DHT22;30418;51.45933468;7.33152330;2024-03-02T05:25:35;11.10;55.90
9544;DHT22;30418;51.45933468;7.33152330;2024-03-02T05:28:04;11.10;55.90
9544;DHT22;30418;51.45933468;7.33152330;2024-03-02T05:30:33;11.00;55.90
9544;DHT22;30418;51.45933468;7.33152330;2024-03-02T05:33:04;11.00;55.90
9544;DHT22;30418;51.45933468;7.33152330;2024-03-02T05:35:32;11.00;55.90
9544;DHT22;30418;51.45933468;7.33152330;2024-03-02T05:38:01;11.00;56.50
9544;DHT22;30418;51.45933468;7.33152330;2024-03-02T05:40:30;11.00;55.90
9544;DHT22;30418;51.45933468;7.33152330;2024-03-02T05:42:59;10.90;55.80
9544;DHT22;30418;51.45933468;7.33152330;2024-03-02T05:45:27;10.90;55.90
9544;DHT22;30418;51.45933468;7.33152330;2024-03-02T05:47:55;11.00;55.90
9544;DHT22;30418;51.45933468;7.33152330;2024-03-02T05:50:25;10.90;55.90
9544;DHT22;30418;51.45933468;7.33152330;2024-03-02T05:52:54;10.90;55.90
9544;DHT22;30418;51.45933468;7.33152330;2024-03-02T05:55:23;10.90;55.90
9544;DHT22;30418;51.45933468;7.33152330;2024-03-02T05:57:51;10.90;55.90
9544;DHT22;30418;51.45933468;7.33152330;2024-03-02T06:00:38;10.90;55.90
9544;DHT22;30418;51.45933468;7.33152330;2024-03-02T06:03:06;10.90;55.90
9544;DHT22;30418;51.45933468;7.33152330;2024-03-02T06:05:37;10.90;55.90
9544;DHT22;30418;51.45933468;7.33152330;2024-03-02T06:08:07;10.80;55.90
9544;DHT22;30418;51.45933468;7.33152330;2024-03-02T06:10:36;10.80;55.90
9544;DHT22;30418;51.45933468;7.33152330;2024-03-02T06:13:04;10.80;55.90
9544;DHT22;30418;51.45933468;7.33152330;2024-03-02T06:15:33;10.80;55.90
9544;DHT22;30418;51.45933468;7.33152330;2024-03-02T06:18:03;10.80;55.90
9544;DHT22;30418;51.45933468;7.33152330;2024-03-02T06:20:34;10.80;56.00
9544;DHT22;30418;51.45933468;7.33152330;2024-03-02T06:23:05;10.80;56.00
9544;DHT22;30418;51.45933468;7.33152330;2024-03-02T06:25:33;10.80;56.10
9544;DHT22;30418;51.45933468;7.33152330;2024-03-02T06:28:02;10.70;56.00
9544;DHT22;30418;51.45933468;7.33152330;2024-03-02T06:30:31;10.80;56.10
9544;DHT22;30418;51.45933468;7.33152330;2024-03-02T06:33:00;10.80;56.20
9544;DHT22;30418;51.45933468;7.33152330;2024-03-02T06:35:28;10.80;56.20
9544;DHT22;30418;51.45933468;7.33152330;2024-03-02T06:37:56;10.80;56.30
9544;DHT22;30418;51.45933468;7.33152330;2024-03-02T06:40:27;10.80;56.30
9544;DHT22;30418;51.45933468;7.33152330;2024-03-02T06:42:55;10.80;56.30
9544;DHT22;30418;51.45933468;7.33152330;2024-03-02T06:45:24;10.80;56.30
9544;DHT22;30418;51.45933468;7.33152330;2024-03-02T06:47:52;10.80;56.20
9544;DHT22;30418;51.45933468;7.33152330;2024-03-02T06:50:21;10.80;56.30
9544;DHT22;30418;51.45933468;7.33152330;2024-03-02T06:52:50;10.80;56.30
9544;DHT22;30418;51.45933468;7.33152330;2024-03-02T06:55:18;10.80;56.30
9544;DHT22;30418;51.45933468;7.33152330;2024-03-02T06:57:48;10.80;56.30
9544;DHT22;30418;51.45933468;7.33152330;2024-03-02T07:00:17;10.80;56.30
9544;DHT22;30418;51.45933468;7.33152330;2024-03-02T07:02:47;10.80;56.40
9544;DHT22;30418;51.45933468;7.33152330;2024-03-02T07:05:16;10.80;56.50
9544;DHT22;30418;51.45933468;7.33152330;2024-03-02T07:07:45;10.80;56.50
9544;DHT22;30418;51.45933468;7.33152330;2024-03-02T07:10:14;10.90;56.60
9544;DHT22;30418;51.45933468;7.33152330;2024-03-02T07:12:43;10.90;56.60
9544;DHT22;30418;51.45933468;7.33152330;2024-03-02T07:15:13;10.90;56.60
9544;DHT22;30418;51.45933468;7.33152330;2024-03-02T07:18:11;10.90;56.60
9544;DHT22;30418;51.45933468;7.33152330;2024-03-02T07:20:40;10.90;56.50
9544;DHT22;30418;51.45933468;7.33152330;2024-03-02T07:23:08;10.90;56.50
9544;DHT22;30418;51.45933468;7.33152330;2024-03-02T07:25:37;11.00;56.60
9544;DHT22;30418;51.45933468;7.33152330;2024-03-02T07:28:09;11.00;56.60
9544;DHT22;30418;51.45933468;7.33152330;2024-03-02T07:30:39;11.00;56.60
9544;DHT22;30418;51.45933468;7.33152330;2024-03-02T07:33:08;11.00;56.60
9544;DHT22;30418;51.45933468;7.33152330;2024-03-02T07:35:36;11.00;56.60
9544;DHT22;30418;51.45933468;7.33152330;2024-03-02T07:38:04;11.00;56.60
9544;DHT22;30418;51.45933468;7.33152330;2024-03-02T07:40:33;11.00;56.60
9544;DHT22;30418;51.45933468;7.33152330;2024-03-02T07:43:02;11.10;56.70
9544;DHT22;30418;51.45933468;7.33152330;2024-03-02T07:45:30;11.10;56.70
9544;DHT22;30418;51.45933468;7.33152330;2024-03-02T07:48:01;11.10;56.70
9544;DHT22;30418;51.45933468;7.33152330;2024-03-02T07:50:31;11.10;56.70
9544;DHT22;30418;51.45933468;7.33152330;2024-03-02T07:53:01;11.10;56.70
9544;DHT22;30418;51.45933468;7.33152330;2024-03-02T07:55:30;11.10;56.70
9544;DHT22;30418;51.45933468;7.33152330;2024-03-02T07:58:00;11.10;56.70
9544;DHT22;30418;51.45933468;7.33152330;2024-03-02T08:00:28;11.20;56.80
9544;DHT22;30418;51.45933468;7.33152330;2024-03-02T08:02:57;11.20;56.80
9544;DHT22;30418;51.45933468;7.33152330;2024-03-02T08:05:27;11.20;56.80
9544;DHT22;30418;51.45933468;7.33152330;2024-03-02T08:07:56;11.20;56.90
9544;DHT22;30418;51.45933468;7.33152330;2024-03-02T08:10:24;11.20;56.90
9544;DHT22;30418;51.45933468;7.33152330;2024-03-02T08:12:53;11.30;56.90
9544;DHT22;30418;51.45933468;7.33152330;2024-03-02T08:15:21;11.30;56.90
9544;DHT22;30418;51.45933468;7.33152330;2024-03-02T08:17:51;11.30;56.90
9544;DHT22;30418;51.45933468;7.33152330;2024-03-02T08:20:19;11.30;56.90
9544;DHT22;30418;51.45933468;7.33152330;2024-03-02T08:22:49;11.30;56.90
9544;DHT22;30418;51.45933468;7.33152330;2024-03-02T08:25:18;11.40;57.00
9544;DHT22;30418;51.45933468;7.33152330;2024-03-02T08:27:47;11.50;57.10
9544;DHT22;30418;51.45933468;7.33152330;2024-03-02T08:30:16;11.50;57.10
9544;DHT22;30418;51.45933468;7.33152330;2024-03-02T08:32:45;11.50;57.10
9544;DHT22;30418;51.45933468;7.33152330;2024-03-02T08:35:14;11.60;57.20
9544;DHT22;30418;51.45933468;7.33152330;2024-03-02T08:37:44;11.60;57.20
9544;DHT22;30418;51.45933468;7.33152330;2024-03-02T08:40:14;11.60;57.00
9544;DHT22;30418;51.45933468;7.33152330;2024-03-02T08:42:45;11.70;57.00
9544;DHT22;30418;51.45933468;7.33152330;2024-03-02T08:45:14;11.70;57.00
9544;DHT22;30418;51.45933468;7.33152330;2024-03-02T08:47:43;11.80;56.90
9544;DHT22;30418;51.45933468;7.33152330;2024-03-02T08:50:12;11.80;56.80
9544;DHT22;30418;51.45933468;7.33152330;2024-03-02T08:52:40;11.80;56.80
9544;DHT22;30418;51.45933468;7.33152330;2024-03-02T08:55:10;11.80;56.80
9544;DHT22;30418;51.45933468;7.33152330;2024-03-02T08:57:40;11.80;56.80
9544;DHT22;30418;51.45933468;7.33152330;2024-03-02T09:00:10;11.80;56.90
9544;DHT22;30418;51.45933468;7.33152330;2024-03-02T09:02:39;11.90;57.00
9544;DHT22;30418;51.45933468;7.33152330;2024-03-02T09:05:08;11.90;57.00
9544;DHT22;30418;51.45933468;7.33152330;2024-03-02T09:07:37;12.00;57.10
9544;DHT22;30418;51.45933468;7.33152330;2024-03-02T09:10:06;12.00;57.00
9544;DHT22;30418;51.45933468;7.33152330;2024-03-02T09:12:37;12.10;57.10
9544;DHT22;30418;51.45933468;7.33152330;2024-03-02T09:15:08;12.10;57.60
9544;DHT22;30418;51.45933468;7.33152330;2024-03-02T09:17:37;12.10;57.00
9544;DHT22;30418;51.45933468;7.33152330;2024-03-02T09:20:06;12.20;57.00
9544;DHT22;30418;51.45933468;7.33152330;2024-03-02T09:22:35;12.20;57.10
9544;DHT22;30418;51.45933468;7.33152330;2024-03-02T09:25:04;12.30;57.20
9544;DHT22;30418;51.45933468;7.33152330;2024-03-02T09:27:36;12.30;57.10
9544;DHT22;30418;51.45933468;7.33152330;2024-03-02T09:30:09;12.40;57.20
9544;DHT22;30418;51.45933468;7.33152330;2024-03-02T09:32:38;12.40;57.10
9544;DHT22;30418;51.45933468;7.33152330;2024-03-02T09:35:07;12.50;57.10
9544;DHT22;30418;51.45933468;7.33152330;2024-03-02T09:37:36;12.60;57.20
9544;DHT22;30418;51.45933468;7.33152330;2024-03-02T09:40:06;12.60;57.00
9544;DHT22;30418;51.45933468;7.33152330;2024-03-02T09:42:35;12.70;57.00
9544;DHT22;30418;51.45933468;7.33152330;2024-03-02T09:45:05;12.70;56.90
9544;DHT22;30418;51.45933468;7.33152330;2024-03-02T09:47:35;12.80;57.00
9544;DHT22;30418;51.45933468;7.33152330;2024-03-02T09:50:05;12.80;56.80
9544;DHT22;30418;51.45933468;7.33152330;2024-03-02T09:52:35;12.90;56.90
9544;DHT22;30418;51.45933468;7.33152330;2024-03-02T09:55:05;13.00;56.80
9544;DHT22;30418;51.45933468;7.33152330;2024-03-02T09:57:33;13.00;56.70
9544;DHT22;30418;51.45933468;7.33152330;2024-03-02T10:00:06;13.10;56.70
9544;DHT22;30418;51.45933468;7.33152330;2024-03-02T10:02:37;13.10;56.70
9544;DHT22;30418;51.45933468;7.33152330;2024-03-02T10:05:06;13.20;56.70
9544;DHT22;30418;51.45933468;7.33152330;2024-03-02T10:07:34;13.20;56.70
9544;DHT22;30418;51.45933468;7.33152330;2024-03-02T10:10:13;13.30;56.70
9544;DHT22;30418;51.45933468;7.33152330;2024-03-02T10:12:42;13.30;56.50
9544;DHT22;30418;51.45933468;7.33152330;2024-03-02T10:15:11;13.40;56.50
9544;DHT22;30418;51.45933468;7.33152330;2024-03-02T10:17:41;13.40;56.50
9544;DHT22;30418;51.45933468;7.33152330;2024-03-02T10:20:22;13.40;56.50
9544;DHT22;30418;51.45933468;7.33152330;2024-03-02T10:22:51;13.50;56.50
9544;DHT22;30418;51.45933468;7.33152330;2024-03-02T10:25:30;13.50;56.60
9544;DHT22;30418;51.45933468;7.33152330;2024-03-02T10:28:03;13.60;56.50
9544;DHT22;30418;51.45933468;7.33152330;2024-03-02T10:30:33;13.70;56.60
9544;DHT22;30418;51.45933468;7.33152330;2024-03-02T10:33:05;13.70;56.40
9544;DHT22;30418;51.45933468;7.33152330;2024-03-02T10:35:36;13.70;56.30
9544;DHT22;30418;51.45933468;7.33152330;2024-03-02T10:38:06;13.80;56.10
9544;DHT22;30418;51.45933468;7.33152330;2024-03-02T10:40:34;13.90;56.20
9544;DHT22;30418;51.45933468;7.33152330;2024-03-02T10:43:03;13.90;56.10
9544;DHT22;30418;51.45933468;7.33152330;2024-03-02T10:45:33;13.90;56.10
9544;DHT22;30418;51.45933468;7.33152330;2024-03-02T10:48:04;14.00;56.10
9544;DHT22;30418;51.45933468;7.33152330;2024-03-02T10:50:34;14.00;55.90
9544;DHT22;30418;51.45933468;7.33152330;2024-03-02T10:53:02;14.10;55.80
9544;DHT22;30418;51.45933468;7.33152330;2024-03-02T10:55:33;14.10;55.60
9544;DHT22;30418;51.45933468;7.33152330;2024-03-02T10:58:04;14.20;55.50
9544;DHT22;30418;51.45933468;7.33152330;2024-03-02T11:00:38;14.20;55.40
9544;DHT22;30418;51.45933468;7.33152330;2024-03-02T11:03:08;14.20;55.30
9544;DHT22;30418;51.45933468;7.33152330;2024-03-02T11:05:40;14.20;55.30
9544;DHT22;30418;51.45933468;7.33152330;2024-03-02T11:08:13;14.30;55.30
9544;DHT22;30418;51.45933468;7.33152330;2024-03-02T11:10:48;14.30;55.30
9544;DHT22;30418;51.45933468;7.33152330;2024-03-02T11:13:22;14.40;55.20
9544;DHT22;30418;51.45933468;7.33152330;2024-03-02T11:16:02;14.40;54.80
9544;DHT22;30418;51.45933468;7.33152330;2024-03-02T11:18:34;14.50;54.80
9544;DHT22;30418;51.45933468;7.33152330;2024-03-02T11:21:04;14.50;55.00
9544;DHT22;30418;51.45933468;7.33152330;2024-03-02T11:23:34;14.60;55.10
9544;DHT22;30418;51.45933468;7.33152330;2024-03-02T11:26:20;14.60;55.00
9544;DHT22;30418;51.45933468;7.33152330;2024-03-02T11:28:50;14.60;54.80
9544;DHT22;30418;51.45933468;7.33152330;2024-03-02T11:31:19;14.70;55.00
9544;DHT22;30418;51.45933468;7.33152330;2024-03-02T11:33:49;14.70;54.90
9544;DHT22;30418;51.45933468;7.33152330;2024-03-02T11:36:17;14.70;54.60
9544;DHT22;30418;51.45933468;7.33152330;2024-03-02T11:38:46;14.80;54.90
9544;DHT22;30418;51.45933468;7.33152330;2024-03-02T11:41:16;14.80;54.70
9544;DHT22;30418;51.45933468;7.33152330;2024-03-02T11:43:45;14.80;54.80
9544;DHT22;30418;51.45933468;7.33152330;2024-03-02T11:46:15;14.90;54.80
9544;DHT22;30418;51.45933468;7.33152330;2024-03-02T11:48:43;15.00;54.80
9544;DHT22;30418;51.45933468;7.33152330;2024-03-02T11:51:13;15.00;54.70
9544;DHT22;30418;51.45933468;7.33152330;2024-03-02T11:53:42;15.00;54.50
9544;DHT22;30418;51.45933468;7.33152330;2024-03-02T11:56:12;15.00;54.50
9544;DHT22;30418;51.45933468;7.33152330;2024-03-02T11:58:43;15.10;54.60
9544;DHT22;30418;51.45933468;7.33152330;2024-03-02T12:01:13;15.20;54.70
9544;DHT22;30418;51.45933468;7.33152330;2024-03-02T12:03:42;15.20;54.70
9544;DHT22;30418;51.45933468;7.33152330;2024-03-02T12:06:12;15.30;54.70
9544;DHT22;30418;51.45933468;7.33152330;2024-03-02T12:08:41;15.30;54.70
9544;DHT22;30418;51.45933468;7.33152330;2024-03-02T12:11:13;15.40;54.60
9544;DHT22;30418;51.45933468;7.33152330;2024-03-02T12:13:52;15.40;54.50
9544;DHT22;30418;51.45933468;7.33152330;2024-03-02T12:16:24;15.40;54.30
9544;DHT22;30418;51.45933468;7.33152330;2024-03-02T12:18:53;15.40;54.50
9544;DHT22;30418;51.45933468;7.33152330;2024-03-02T12:21:23;15.50;54.50
9544;DHT22;30418;51.45933468;7.33152330;2024-03-02T12:23:51;15.50;54.50
9544;DHT22;30418;51.45933468;7.33152330;2024-03-02T12:26:19;15.60;54.60
9544;DHT22;30418;51.45933468;7.33152330;2024-03-02T12:28:48;15.60;54.50
9544;DHT22;30418;51.45933468;7.33152330;2024-03-02T12:31:17;15.60;54.40
9544;DHT22;30418;51.45933468;7.33152330;2024-03-02T12:33:46;15.60;54.20
9544;DHT22;30418;51.45933468;7.33152330;2024-03-02T12:36:15;15.70;54.10
9544;DHT22;30418;51.45933468;7.33152330;2024-03-02T12:38:45;15.70;54.70
9544;DHT22;30418;51.45933468;7.33152330;2024-03-02T12:41:15;15.70;54.00
9544;DHT22;30418;51.45933468;7.33152330;2024-03-02T12:43:44;15.70;54.00
9544;DHT22;30418;51.45933468;7.33152330;2024-03-02T12:46:14;15.70;54.00
9544;DHT22;30418;51.45933468;7.33152330;2024-03-02T12:48:43;15.70;54.00
9544;DHT22;30418;51.45933468;7.33152330;2024-03-02T12:51:12;15.70;54.00
9544;DHT22;30418;51.45933468;7.33152330;2024-03-02T12:53:41;15.70;54.00
9544;DHT22;30418;51.45933468;7.33152330;2024-03-02T12:56:11;15.70;54.00
9544;DHT22;30418;51.45933468;7.33152330;2024-03-02T12:58:40;15.70;53.90
9544;DHT22;30418;51.45933468;7.33152330;2024-03-02T13:01:09;15.70;53.90
9544;DHT22;30418;51.45933468;7.33152330;2024-03-02T13:03:38;15.70;53.90
9544;DHT22;30418;51.45933468;7.33152330;2024-03-02T13:06:07;15.70;53.90
9544;DHT22;30418;51.45933468;7.33152330;2024-03-02T13:08:36;15.70;53.80
9544;DHT22;30418;51.45933468;7.33152330;2024-03-02T13:11:05;15.70;53.70
9544;DHT22;30418;51.45933468;7.33152330;2024-03-02T13:13:35;15.70;53.60
9544;DHT22;30418;51.45933468;7.33152330;2024-03-02T13:16:08;15.70;53.60
9544;DHT22;30418;51.45933468;7.33152330;2024-03-02T13:18:38;15.70;53.70
9544;DHT22;30418;51.45933468;7.33152330;2024-03-02T13:21:07;15.70;53.70
9544;DHT22;30418;51.45933468;7.33152330;2024-03-02T13:23:35;15.70;53.60
9544;DHT22;30418;51.45933468;7.33152330;2024-03-02T13:26:04;15.70;53.70
9544;DHT22;30418;51.45933468;7.33152330;2024-03-02T13:28:36;15.70;53.80
9544;DHT22;30418;51.45933468;7.33152330;2024-03-02T13:31:06;15.80;53.90
9544;DHT22;30418;51.45933468;7.33152330;2024-03-02T13:33:34;15.80;53.90
9544;DHT22;30418;51.45933468;7.33152330;2024-03-02T13:36:03;15.80;53.70
9544;DHT22;30418;51.45933468;7.33152330;2024-03-02T13:38:32;15.70;53.50
9544;DHT22;30418;51.45933468;7.33152330;2024-03-02T13:41:01;15.70;53.50
9544;DHT22;30418;51.45933468;7.33152330;2024-03-02T13:43:29;15.70;53.50
9544;DHT22;30418;51.45933468;7.33152330;2024-03-02T13:46:02;15.70;53.50
9544;DHT22;30418;51.45933468;7.33152330;2024-03-02T13:48:30;15.70;53.50